METAR Data
IDs: Format: Raw Decoded Include TAF

Data at: 0259 UTC 20 Jan 2022

KDSM 200254Z 33009G18KT 10SM FEW150 M16/M22 A3058 RMK AO2 SLP380 T11611217 51025 $